TimePST,TemperatureF,Dew PointF,Humidity,Sea Level PressureIn,VisibilityMPH,Wind Direction,Wind SpeedMPH,Gust SpeedMPH,PrecipitationIn,Events,Conditions,WindDirDegrees,DateUTC
12:52 AM,60.1,41.0,49,29.88,10.0,NNW,11.5,-,N/A,,Clear,340,2013-03-07 08:52:00
1:52 AM,59.0,42.1,53,29.87,10.0,NNW,10.4,-,N/A,,Clear,340,2013-03-07 09:52:00
2:52 AM,60.1,42.1,51,29.86,10.0,NNW,12.7,-,N/A,,Clear,330,2013-03-07 10:52:00
3:52 AM,54.0,41.0,62,29.87,10.0,South,5.8,-,N/A,,Clear,190,2013-03-07 11:52:00
4:52 AM,57.0,41.0,55,29.88,10.0,NW,4.6,-,N/A,,Clear,310,2013-03-07 12:52:00
5:52 AM,48.9,39.0,69,29.89,10.0,North,4.6,-,N/A,,Clear,350,2013-03-07 13:52:00
7:52 AM,64.0,42.1,45,29.91,10.0,NNW,5.8,-,N/A,,Clear,330,2013-03-07 15:52:00
8:52 AM,66.9,42.1,40,29.91,10.0,NNW,10.4,-,N/A,,Clear,340,2013-03-07 16:52:00
9:52 AM,70.0,39.9,33,29.90,10.0,Variable,5.8,-,N/A,,Clear,0,2013-03-07 17:52:00
10:52 AM,70.0,39.9,33,29.90,10.0,Variable,6.9,-,N/A,,Clear,0,2013-03-07 18:52:00
11:52 AM,71.1,41.0,34,29.89,10.0,ESE,5.8,-,N/A,,Clear,110,2013-03-07 19:52:00
12:52 PM,69.1,39.0,33,29.87,10.0,SE,6.9,-,N/A,,Partly Cloudy,130,2013-03-07 20:52:00
1:52 PM,69.1,39.0,33,29.85,10.0,ESE,4.6,-,N/A,,Clear,120,2013-03-07 21:52:00
2:52 PM,70.0,39.0,32,29.84,10.0,SSE,3.5,-,N/A,,Clear,160,2013-03-07 22:52:00
3:52 PM,70.0,36.0,29,29.82,10.0,SE,5.8,-,N/A,,Clear,140,2013-03-07 23:52:00
4:52 PM,66.9,39.9,37,29.82,10.0,NNW,13.8,18.4,N/A,,Scattered Clouds,330,2013-03-08 00:52:00
5:52 PM,64.0,39.0,40,29.83,10.0,NNW,10.4,-,N/A,,Clear,340,2013-03-08 01:52:00
6:52 PM,61.0,39.9,46,29.84,10.0,NNW,16.1,-,N/A,,Clear,340,2013-03-08 02:52:00
7:52 PM,61.0,39.9,46,29.83,10.0,NNW,16.1,-,N/A,,Clear,330,2013-03-08 03:52:00
8:52 PM,59.0,39.0,48,29.85,10.0,NNW,13.8,-,N/A,,Clear,340,2013-03-08 04:52:00
10:52 PM,57.9,37.9,47,29.84,10.0,NW,4.6,-,N/A,,Overcast,310,2013-03-08 06:52:00
11:52 PM,57.9,36.0,44,29.81,10.0,WNW,6.9,-,N/A,,Overcast,290,2013-03-08 07:52:00